sensor_id;sensor_type;location;lat;lon;timestamp;P1;durP1;ratioP1;P2;durP2;ratioP2
30934;SDS011;51033;42.648;23.292;2023-05-07T00:01:31;11.35;;;8.32;;
30934;SDS011;51033;42.648;23.292;2023-05-07T00:03:57;10.15;;;9.15;;
30934;SDS011;51033;42.648;23.292;2023-05-07T00:06:22;12.07;;;7.97;;
30934;SDS011;51033;42.648;23.292;2023-05-07T00:08:48;10.07;;;8.35;;
30934;SDS011;51033;42.648;23.292;2023-05-07T00:11:13;10.98;;;9.00;;
30934;SDS011;51033;42.648;23.292;2023-05-07T00:13:39;12.43;;;8.35;;
30934;SDS011;51033;42.648;23.292;2023-05-07T00:16:04;10.57;;;8.82;;
30934;SDS011;51033;42.648;23.292;2023-05-07T00:18:30;9.77;;;8.32;;
30934;SDS011;51033;42.648;23.292;2023-05-07T00:20:55;9.10;;;7.50;;
30934;SDS011;51033;42.648;23.292;2023-05-07T00:23:21;10.18;;;6.70;;
30934;SDS011;51033;42.648;23.292;2023-05-07T00:25:48;8.90;;;6.05;;
30934;SDS011;51033;42.648;23.292;2023-05-07T00:28:13;5.70;;;5.20;;
30934;SDS011;51033;42.648;23.292;2023-05-07T00:30:38;8.40;;;5.28;;
30934;SDS011;51033;42.648;23.292;2023-05-07T00:33:04;7.88;;;5.38;;
30934;SDS011;51033;42.648;23.292;2023-05-07T00:35:29;8.55;;;6.13;;
30934;SDS011;51033;42.648;23.292;2023-05-07T00:37:55;7.30;;;5.60;;
30934;SDS011;51033;42.648;23.292;2023-05-07T00:40:20;6.35;;;5.25;;
30934;SDS011;51033;42.648;23.292;2023-05-07T00:42:46;6.13;;;4.82;;
30934;SDS011;51033;42.648;23.292;2023-05-07T00:45:12;6.90;;;5.45;;
30934;SDS011;51033;42.648;23.292;2023-05-07T00:47:38;7.05;;;4.47;;
30934;SDS011;51033;42.648;23.292;2023-05-07T00:50:05;7.40;;;5.70;;
30934;SDS011;51033;42.648;23.292;2023-05-07T00:52:32;5.90;;;5.30;;
30934;SDS011;51033;42.648;23.292;2023-05-07T00:54:57;6.93;;;5.65;;
30934;SDS011;51033;42.648;23.292;2023-05-07T00:57:29;6.22;;;5.38;;
30934;SDS011;51033;42.648;23.292;2023-05-07T00:59:57;6.50;;;5.47;;
30934;SDS011;51033;42.648;23.292;2023-05-07T01:02:22;6.68;;;5.38;;
30934;SDS011;51033;42.648;23.292;2023-05-07T01:04:48;6.50;;;5.80;;
30934;SDS011;51033;42.648;23.292;2023-05-07T01:07:13;9.63;;;5.13;;
30934;SDS011;51033;42.648;23.292;2023-05-07T01:09:39;7.28;;;5.20;;
30934;SDS011;51033;42.648;23.292;2023-05-07T01:12:05;5.30;;;4.80;;
30934;SDS011;51033;42.648;23.292;2023-05-07T01:14:32;5.90;;;5.18;;
30934;SDS011;51033;42.648;23.292;2023-05-07T01:16:58;7.68;;;5.97;;
30934;SDS011;51033;42.648;23.292;2023-05-07T01:19:23;9.70;;;6.32;;
30934;SDS011;51033;42.648;23.292;2023-05-07T01:21:49;6.05;;;5.50;;
30934;SDS011;51033;42.648;23.292;2023-05-07T01:24:16;6.10;;;5.30;;
30934;SDS011;51033;42.648;23.292;2023-05-07T01:26:42;6.93;;;6.20;;
30934;SDS011;51033;42.648;23.292;2023-05-07T01:29:12;10.35;;;6.25;;
30934;SDS011;51033;42.648;23.292;2023-05-07T01:31:37;7.85;;;7.05;;
30934;SDS011;51033;42.648;23.292;2023-05-07T01:34:05;7.57;;;6.05;;
30934;SDS011;51033;42.648;23.292;2023-05-07T01:36:33;10.25;;;7.72;;
30934;SDS011;51033;42.648;23.292;2023-05-07T01:39:03;9.13;;;7.05;;
30934;SDS011;51033;42.648;23.292;2023-05-07T01:41:30;10.23;;;7.22;;
30934;SDS011;51033;42.648;23.292;2023-05-07T01:43:56;14.25;;;8.10;;
30934;SDS011;51033;42.648;23.292;2023-05-07T01:46:23;9.95;;;7.47;;
30934;SDS011;51033;42.648;23.292;2023-05-07T01:48:51;10.05;;;7.53;;
30934;SDS011;51033;42.648;23.292;2023-05-07T01:51:16;11.95;;;7.65;;
30934;SDS011;51033;42.648;23.292;2023-05-07T01:53:41;11.48;;;7.65;;
30934;SDS011;51033;42.648;23.292;2023-05-07T01:56:08;11.85;;;7.30;;
30934;SDS011;51033;42.648;23.292;2023-05-07T01:58:34;10.10;;;7.32;;
30934;SDS011;51033;42.648;23.292;2023-05-07T02:00:59;10.05;;;7.43;;
30934;SDS011;51033;42.648;23.292;2023-05-07T02:03:25;10.60;;;7.30;;
30934;SDS011;51033;42.648;23.292;2023-05-07T02:05:50;9.48;;;6.90;;
30934;SDS011;51033;42.648;23.292;2023-05-07T02:08:16;12.45;;;8.07;;
30934;SDS011;51033;42.648;23.292;2023-05-07T02:10:41;10.38;;;8.43;;
30934;SDS011;51033;42.648;23.292;2023-05-07T02:13:06;11.45;;;8.23;;
30934;SDS011;51033;42.648;23.292;2023-05-07T02:15:32;10.05;;;8.52;;
30934;SDS011;51033;42.648;23.292;2023-05-07T02:18:04;15.00;;;9.77;;
30934;SDS011;51033;42.648;23.292;2023-05-07T02:20:35;12.18;;;9.65;;
30934;SDS011;51033;42.648;23.292;2023-05-07T02:23:00;11.68;;;9.18;;
30934;SDS011;51033;42.648;23.292;2023-05-07T02:25:26;13.70;;;9.73;;
30934;SDS011;51033;42.648;23.292;2023-05-07T02:27:51;11.23;;;9.60;;
30934;SDS011;51033;42.648;23.292;2023-05-07T02:30:16;13.75;;;10.05;;
30934;SDS011;51033;42.648;23.292;2023-05-07T02:32:42;10.30;;;9.07;;
30934;SDS011;51033;42.648;23.292;2023-05-07T02:35:07;14.77;;;9.80;;
30934;SDS011;51033;42.648;23.292;2023-05-07T02:37:33;11.82;;;9.82;;
30934;SDS011;51033;42.648;23.292;2023-05-07T02:39:58;10.98;;;9.07;;
30934;SDS011;51033;42.648;23.292;2023-05-07T02:42:24;9.93;;;8.77;;
30934;SDS011;51033;42.648;23.292;2023-05-07T02:44:49;11.80;;;8.95;;
30934;SDS011;51033;42.648;23.292;2023-05-07T02:47:15;10.95;;;9.13;;
30934;SDS011;51033;42.648;23.292;2023-05-07T02:49:40;10.98;;;9.38;;
30934;SDS011;51033;42.648;23.292;2023-05-07T02:52:06;12.50;;;9.38;;
30934;SDS011;51033;42.648;23.292;2023-05-07T02:54:31;12.35;;;8.48;;
30934;SDS011;51033;42.648;23.292;2023-05-07T02:56:57;12.40;;;8.88;;
30934;SDS011;51033;42.648;23.292;2023-05-07T02:59:23;10.30;;;9.02;;
30934;SDS011;51033;42.648;23.292;2023-05-07T03:01:49;10.15;;;8.48;;
30934;SDS011;51033;42.648;23.292;2023-05-07T03:04:15;11.30;;;9.30;;
30934;SDS011;51033;42.648;23.292;2023-05-07T03:06:40;10.10;;;9.07;;
30934;SDS011;51033;42.648;23.292;2023-05-07T03:09:06;11.68;;;9.55;;
30934;SDS011;51033;42.648;23.292;2023-05-07T03:11:32;10.45;;;8.48;;
30934;SDS011;51033;42.648;23.292;2023-05-07T03:13:57;9.13;;;8.15;;
30934;SDS011;51033;42.648;23.292;2023-05-07T03:16:22;10.02;;;8.10;;
30934;SDS011;51033;42.648;23.292;2023-05-07T03:18:48;9.40;;;8.40;;
30934;SDS011;51033;42.648;23.292;2023-05-07T03:21:13;10.27;;;8.57;;
30934;SDS011;51033;42.648;23.292;2023-05-07T03:23:38;10.50;;;8.13;;
30934;SDS011;51033;42.648;23.292;2023-05-07T03:26:05;11.50;;;8.63;;
30934;SDS011;51033;42.648;23.292;2023-05-07T03:28:30;13.65;;;9.05;;
30934;SDS011;51033;42.648;23.292;2023-05-07T03:30:56;10.93;;;8.40;;
30934;SDS011;51033;42.648;23.292;2023-05-07T03:33:21;13.05;;;8.57;;
30934;SDS011;51033;42.648;23.292;2023-05-07T03:35:47;10.60;;;7.80;;
30934;SDS011;51033;42.648;23.292;2023-05-07T03:38:13;11.75;;;8.00;;
30934;SDS011;51033;42.648;23.292;2023-05-07T03:40:38;9.30;;;8.13;;
30934;SDS011;51033;42.648;23.292;2023-05-07T03:43:03;9.80;;;7.97;;
30934;SDS011;51033;42.648;23.292;2023-05-07T03:45:29;9.02;;;8.13;;
30934;SDS011;51033;42.648;23.292;2023-05-07T03:47:54;8.27;;;7.47;;
30934;SDS011;51033;42.648;23.292;2023-05-07T03:50:20;11.77;;;8.05;;
30934;SDS011;51033;42.648;23.292;2023-05-07T03:52:45;10.70;;;7.72;;
30934;SDS011;51033;42.648;23.292;2023-05-07T03:55:10;14.20;;;8.95;;
30934;SDS011;51033;42.648;23.292;2023-05-07T03:57:36;13.65;;;9.50;;
30934;SDS011;51033;42.648;23.292;2023-05-07T04:00:01;16.98;;;10.98;;
30934;SDS011;51033;42.648;23.292;2023-05-07T04:02:29;17.88;;;10.25;;
30934;SDS011;51033;42.648;23.292;2023-05-07T04:04:55;13.02;;;10.52;;
30934;SDS011;51033;42.648;23.292;2023-05-07T04:07:20;12.75;;;9.48;;
30934;SDS011;51033;42.648;23.292;2023-05-07T04:09:46;11.63;;;9.45;;
30934;SDS011;51033;42.648;23.292;2023-05-07T04:12:11;11.52;;;10.30;;
30934;SDS011;51033;42.648;23.292;2023-05-07T04:14:36;12.43;;;10.18;;
30934;SDS011;51033;42.648;23.292;2023-05-07T04:17:02;11.73;;;9.45;;
30934;SDS011;51033;42.648;23.292;2023-05-07T04:19:27;12.70;;;10.52;;
30934;SDS011;51033;42.648;23.292;2023-05-07T04:21:53;13.20;;;9.40;;
30934;SDS011;51033;42.648;23.292;2023-05-07T04:24:18;15.77;;;10.77;;
30934;SDS011;51033;42.648;23.292;2023-05-07T04:26:44;14.10;;;10.48;;
30934;SDS011;51033;42.648;23.292;2023-05-07T04:29:09;14.13;;;10.02;;
30934;SDS011;51033;42.648;23.292;2023-05-07T04:31:34;11.40;;;10.20;;
30934;SDS011;51033;42.648;23.292;2023-05-07T04:34:00;14.15;;;10.65;;
30934;SDS011;51033;42.648;23.292;2023-05-07T04:36:26;18.98;;;10.20;;
30934;SDS011;51033;42.648;23.292;2023-05-07T04:38:52;13.25;;;10.07;;
30934;SDS011;51033;42.648;23.292;2023-05-07T04:41:18;13.70;;;10.85;;
30934;SDS011;51033;42.648;23.292;2023-05-07T04:43:44;13.07;;;9.65;;
30934;SDS011;51033;42.648;23.292;2023-05-07T04:46:11;14.02;;;9.95;;
30934;SDS011;51033;42.648;23.292;2023-05-07T04:48:36;11.05;;;10.05;;
30934;SDS011;51033;42.648;23.292;2023-05-07T04:51:02;17.23;;;11.63;;
30934;SDS011;51033;42.648;23.292;2023-05-07T04:53:27;15.13;;;10.82;;
30934;SDS011;51033;42.648;23.292;2023-05-07T04:55:56;13.98;;;10.65;;
30934;SDS011;51033;42.648;23.292;2023-05-07T04:58:24;13.27;;;10.80;;
30934;SDS011;51033;42.648;23.292;2023-05-07T05:00:50;11.07;;;9.85;;
30934;SDS011;51033;42.648;23.292;2023-05-07T05:03:15;16.48;;;10.90;;
30934;SDS011;51033;42.648;23.292;2023-05-07T05:05:40;13.05;;;10.55;;
30934;SDS011;51033;42.648;23.292;2023-05-07T05:08:06;14.60;;;10.65;;
30934;SDS011;51033;42.648;23.292;2023-05-07T05:10:31;15.68;;;11.13;;
30934;SDS011;51033;42.648;23.292;2023-05-07T05:12:57;15.35;;;11.38;;
30934;SDS011;51033;42.648;23.292;2023-05-07T05:15:22;14.88;;;10.65;;
30934;SDS011;51033;42.648;23.292;2023-05-07T05:17:48;16.38;;;10.70;;
30934;SDS011;51033;42.648;23.292;2023-05-07T05:20:13;12.57;;;9.82;;
30934;SDS011;51033;42.648;23.292;2023-05-07T05:22:39;11.63;;;10.40;;
30934;SDS011;51033;42.648;23.292;2023-05-07T05:25:05;11.50;;;10.00;;
30934;SDS011;51033;42.648;23.292;2023-05-07T05:27:31;14.88;;;11.68;;
30934;SDS011;51033;42.648;23.292;2023-05-07T05:29:56;12.82;;;10.32;;
30934;SDS011;51033;42.648;23.292;2023-05-07T05:32:21;11.98;;;10.68;;
30934;SDS011;51033;42.648;23.292;2023-05-07T05:34:47;13.55;;;9.73;;
30934;SDS011;51033;42.648;23.292;2023-05-07T05:37:12;15.30;;;11.13;;
30934;SDS011;51033;42.648;23.292;2023-05-07T05:39:38;13.10;;;10.88;;
30934;SDS011;51033;42.648;23.292;2023-05-07T05:42:03;12.23;;;9.70;;
30934;SDS011;51033;42.648;23.292;2023-05-07T05:44:28;15.70;;;9.88;;
30934;SDS011;51033;42.648;23.292;2023-05-07T05:46:54;13.85;;;10.48;;
30934;SDS011;51033;42.648;23.292;2023-05-07T05:49:21;11.88;;;10.43;;
30934;SDS011;51033;42.648;23.292;2023-05-07T05:51:49;13.60;;;10.43;;
30934;SDS011;51033;42.648;23.292;2023-05-07T05:54:14;13.65;;;10.38;;
30934;SDS011;51033;42.648;23.292;2023-05-07T05:56:40;13.45;;;9.73;;
30934;SDS011;51033;42.648;23.292;2023-05-07T05:59:07;14.73;;;10.63;;
30934;SDS011;51033;42.648;23.292;2023-05-07T06:01:32;15.15;;;10.65;;
30934;SDS011;51033;42.648;23.292;2023-05-07T06:03:58;12.98;;;10.50;;
30934;SDS011;51033;42.648;23.292;2023-05-07T06:06:23;14.48;;;10.38;;
30934;SDS011;51033;42.648;23.292;2023-05-07T06:08:49;15.70;;;9.52;;
30934;SDS011;51033;42.648;23.292;2023-05-07T06:11:14;10.93;;;9.35;;
30934;SDS011;51033;42.648;23.292;2023-05-07T06:13:40;12.93;;;9.18;;
30934;SDS011;51033;42.648;23.292;2023-05-07T06:16:05;16.13;;;10.10;;
30934;SDS011;51033;42.648;23.292;2023-05-07T06:18:31;13.18;;;9.57;;
30934;SDS011;51033;42.648;23.292;2023-05-07T06:20:56;14.18;;;9.80;;
30934;SDS011;51033;42.648;23.292;2023-05-07T06:23:22;12.82;;;9.45;;
30934;SDS011;51033;42.648;23.292;2023-05-07T06:25:50;13.95;;;10.38;;
30934;SDS011;51033;42.648;23.292;2023-05-07T06:28:16;12.40;;;10.27;;
30934;SDS011;51033;42.648;23.292;2023-05-07T06:30:42;11.50;;;10.25;;
30934;SDS011;51033;42.648;23.292;2023-05-07T06:33:07;12.45;;;9.80;;
30934;SDS011;51033;42.648;23.292;2023-05-07T06:35:32;13.65;;;10.30;;
30934;SDS011;51033;42.648;23.292;2023-05-07T06:37:58;11.05;;;8.95;;
30934;SDS011;51033;42.648;23.292;2023-05-07T06:40:24;13.32;;;9.45;;
30934;SDS011;51033;42.648;23.292;2023-05-07T06:42:50;13.40;;;9.63;;
30934;SDS011;51033;42.648;23.292;2023-05-07T06:45:15;12.00;;;9.00;;
30934;SDS011;51033;42.648;23.292;2023-05-07T06:47:41;12.93;;;8.80;;
30934;SDS011;51033;42.648;23.292;2023-05-07T06:50:06;12.05;;;8.50;;
30934;SDS011;51033;42.648;23.292;2023-05-07T06:52:32;9.48;;;8.45;;
30934;SDS011;51033;42.648;23.292;2023-05-07T06:54:57;12.20;;;9.02;;
30934;SDS011;51033;42.648;23.292;2023-05-07T06:57:23;12.30;;;8.10;;
30934;SDS011;51033;42.648;23.292;2023-05-07T06:59:49;11.85;;;8.35;;
30934;SDS011;51033;42.648;23.292;2023-05-07T07:02:14;9.93;;;7.50;;
30934;SDS011;51033;42.648;23.292;2023-05-07T07:04:40;8.85;;;7.15;;
30934;SDS011;51033;42.648;23.292;2023-05-07T07:07:06;9.90;;;7.45;;
30934;SDS011;51033;42.648;23.292;2023-05-07T07:09:32;8.48;;;7.22;;
30934;SDS011;51033;42.648;23.292;2023-05-07T07:11:57;10.15;;;6.90;;
30934;SDS011;51033;42.648;23.292;2023-05-07T07:14:23;9.63;;;7.63;;
30934;SDS011;51033;42.648;23.292;2023-05-07T07:16:48;9.55;;;6.97;;
30934;SDS011;51033;42.648;23.292;2023-05-07T07:19:14;11.57;;;7.68;;
30934;SDS011;51033;42.648;23.292;2023-05-07T07:21:40;14.50;;;8.63;;
30934;SDS011;51033;42.648;23.292;2023-05-07T07:24:06;11.30;;;8.23;;
30934;SDS011;51033;42.648;23.292;2023-05-07T07:26:31;8.80;;;7.60;;
30934;SDS011;51033;42.648;23.292;2023-05-07T07:28:57;10.07;;;7.82;;
30934;SDS011;51033;42.648;23.292;2023-05-07T07:31:22;9.60;;;8.20;;
30934;SDS011;51033;42.648;23.292;2023-05-07T07:33:48;9.35;;;7.20;;
30934;SDS011;51033;42.648;23.292;2023-05-07T07:36:15;9.75;;;7.25;;
30934;SDS011;51033;42.648;23.292;2023-05-07T07:38:40;11.32;;;7.88;;
30934;SDS011;51033;42.648;23.292;2023-05-07T07:41:07;10.70;;;8.23;;
30934;SDS011;51033;42.648;23.292;2023-05-07T07:43:33;13.15;;;6.65;;
30934;SDS011;51033;42.648;23.292;2023-05-07T07:45:58;12.52;;;6.70;;
30934;SDS011;51033;42.648;23.292;2023-05-07T07:48:24;16.25;;;7.95;;
30934;SDS011;51033;42.648;23.292;2023-05-07T07:50:49;10.00;;;7.30;;
30934;SDS011;51033;42.648;23.292;2023-05-07T07:53:18;9.13;;;6.43;;
30934;SDS011;51033;42.648;23.292;2023-05-07T07:55:44;8.43;;;6.88;;
30934;SDS011;51033;42.648;23.292;2023-05-07T07:58:09;9.90;;;6.93;;
30934;SDS011;51033;42.648;23.292;2023-05-07T08:00:35;10.30;;;7.15;;
30934;SDS011;51033;42.648;23.292;2023-05-07T08:03:01;11.98;;;6.97;;
30934;SDS011;51033;42.648;23.292;2023-05-07T08:05:28;7.28;;;6.38;;
30934;SDS011;51033;42.648;23.292;2023-05-07T08:07:53;8.95;;;6.38;;
30934;SDS011;51033;42.648;23.292;2023-05-07T08:10:19;7.97;;;6.30;;
30934;SDS011;51033;42.648;23.292;2023-05-07T08:12:48;7.00;;;6.28;;
30934;SDS011;51033;42.648;23.292;2023-05-07T08:15:14;8.73;;;6.03;;
30934;SDS011;51033;42.648;23.292;2023-05-07T08:17:40;8.02;;;6.38;;
30934;SDS011;51033;42.648;23.292;2023-05-07T08:20:05;9.63;;;5.65;;
30934;SDS011;51033;42.648;23.292;2023-05-07T08:22:31;7.50;;;6.70;;
30934;SDS011;51033;42.648;23.292;2023-05-07T08:24:57;8.60;;;7.80;;
30934;SDS011;51033;42.648;23.292;2023-05-07T08:27:22;11.73;;;7.40;;
30934;SDS011;51033;42.648;23.292;2023-05-07T08:29:48;8.55;;;7.20;;
30934;SDS011;51033;42.648;23.292;2023-05-07T08:32:13;8.27;;;7.10;;
30934;SDS011;51033;42.648;23.292;2023-05-07T08:34:39;8.77;;;6.50;;
30934;SDS011;51033;42.648;23.292;2023-05-07T08:37:05;10.13;;;7.20;;
30934;SDS011;51033;42.648;23.292;2023-05-07T08:39:30;14.55;;;7.90;;
30934;SDS011;51033;42.648;23.292;2023-05-07T08:41:55;7.97;;;6.65;;
30934;SDS011;51033;42.648;23.292;2023-05-07T08:44:26;7.85;;;6.20;;
30934;SDS011;51033;42.648;23.292;2023-05-07T08:46:54;12.02;;;6.60;;
30934;SDS011;51033;42.648;23.292;2023-05-07T08:49:22;10.90;;;7.22;;
30934;SDS011;51033;42.648;23.292;2023-05-07T08:51:47;7.13;;;5.45;;
30934;SDS011;51033;42.648;23.292;2023-05-07T08:54:15;11.27;;;5.32;;
30934;SDS011;51033;42.648;23.292;2023-05-07T08:56:41;8.15;;;5.97;;
30934;SDS011;51033;42.648;23.292;2023-05-07T08:59:07;7.75;;;5.93;;
30934;SDS011;51033;42.648;23.292;2023-05-07T09:01:32;12.13;;;9.18;;
30934;SDS011;51033;42.648;23.292;2023-05-07T09:04:03;8.93;;;7.20;;
30934;SDS011;51033;42.648;23.292;2023-05-07T09:06:29;12.27;;;7.78;;
30934;SDS011;51033;42.648;23.292;2023-05-07T09:08:55;9.20;;;7.15;;
30934;SDS011;51033;42.648;23.292;2023-05-07T09:11:21;13.82;;;7.07;;
30934;SDS011;51033;42.648;23.292;2023-05-07T09:13:48;10.77;;;6.47;;
30934;SDS011;51033;42.648;23.292;2023-05-07T09:16:14;11.85;;;6.50;;
30934;SDS011;51033;42.648;23.292;2023-05-07T09:18:41;10.75;;;7.22;;
30934;SDS011;51033;42.648;23.292;2023-05-07T09:21:09;8.40;;;6.53;;
30934;SDS011;51033;42.648;23.292;2023-05-07T09:23:35;10.00;;;7.00;;
30934;SDS011;51033;42.648;23.292;2023-05-07T09:26:00;8.00;;;6.28;;
30934;SDS011;51033;42.648;23.292;2023-05-07T09:28:27;6.88;;;5.45;;
30934;SDS011;51033;42.648;23.292;2023-05-07T09:30:52;7.43;;;6.05;;
30934;SDS011;51033;42.648;23.292;2023-05-07T09:33:17;7.20;;;6.30;;
30934;SDS011;51033;42.648;23.292;2023-05-07T09:35:43;8.90;;;6.55;;
30934;SDS011;51033;42.648;23.292;2023-05-07T09:38:08;10.48;;;7.05;;
30934;SDS011;51033;42.648;23.292;2023-05-07T09:40:34;9.00;;;6.70;;
30934;SDS011;51033;42.648;23.292;2023-05-07T09:43:10;11.43;;;6.75;;
30934;SDS011;51033;42.648;23.292;2023-05-07T09:45:37;7.10;;;5.68;;
30934;SDS011;51033;42.648;23.292;2023-05-07T09:48:04;9.30;;;5.72;;
30934;SDS011;51033;42.648;23.292;2023-05-07T09:50:47;9.48;;;5.97;;
30934;SDS011;51033;42.648;23.292;2023-05-07T09:53:14;7.18;;;6.30;;
30934;SDS011;51033;42.648;23.292;2023-05-07T09:55:42;11.00;;;6.20;;
30934;SDS011;51033;42.648;23.292;2023-05-07T09:58:08;7.28;;;5.90;;
30934;SDS011;51033;42.648;23.292;2023-05-07T10:00:34;7.10;;;5.15;;
30934;SDS011;51033;42.648;23.292;2023-05-07T10:03:01;6.35;;;5.68;;
30934;SDS011;51033;42.648;23.292;2023-05-07T10:05:30;6.97;;;5.25;;
30934;SDS011;51033;42.648;23.292;2023-05-07T10:07:57;7.82;;;4.78;;
30934;SDS011;51033;42.648;23.292;2023-05-07T10:10:23;7.95;;;4.90;;
30934;SDS011;51033;42.648;23.292;2023-05-07T10:12:49;6.93;;;4.82;;
30934;SDS011;51033;42.648;23.292;2023-05-07T10:15:16;25.50;;;6.60;;
30934;SDS011;51033;42.648;23.292;2023-05-07T10:17:42;6.50;;;4.13;;
30934;SDS011;51033;42.648;23.292;2023-05-07T10:20:07;6.57;;;5.13;;
30934;SDS011;51033;42.648;23.292;2023-05-07T10:22:43;5.57;;;4.35;;
30934;SDS011;51033;42.648;23.292;2023-05-07T10:25:18;6.10;;;4.70;;
30934;SDS011;51033;42.648;23.292;2023-05-07T10:27:50;6.07;;;4.68;;
30934;SDS011;51033;42.648;23.292;2023-05-07T10:33:15;7.43;;;5.28;;
30934;SDS011;51033;42.648;23.292;2023-05-07T10:35:47;6.05;;;4.90;;
30934;SDS011;51033;42.648;23.292;2023-05-07T10:38:13;9.30;;;5.97;;
30934;SDS011;51033;42.648;23.292;2023-05-07T10:40:39;7.45;;;5.25;;
30934;SDS011;51033;42.648;23.292;2023-05-07T10:43:05;6.13;;;5.50;;
30934;SDS011;51033;42.648;23.292;2023-05-07T10:45:31;6.55;;;5.70;;
30934;SDS011;51033;42.648;23.292;2023-05-07T10:50:33;8.40;;;4.97;;
30934;SDS011;51033;42.648;23.292;2023-05-07T10:55:43;8.15;;;5.88;;
30934;SDS011;51033;42.648;23.292;2023-05-07T10:58:23;7.75;;;5.25;;
30934;SDS011;51033;42.648;23.292;2023-05-07T11:00:59;6.07;;;4.70;;
30934;SDS011;51033;42.648;23.292;2023-05-07T11:03:26;6.95;;;5.10;;
30934;SDS011;51033;42.648;23.292;2023-05-07T11:08:54;6.82;;;4.90;;
30934;SDS011;51033;42.648;23.292;2023-05-07T11:17:20;9.00;;;5.45;;
30934;SDS011;51033;42.648;23.292;2023-05-07T11:19:52;7.60;;;4.85;;
30934;SDS011;51033;42.648;23.292;2023-05-07T11:24:56;8.23;;;5.82;;
30934;SDS011;51033;42.648;23.292;2023-05-07T11:27:24;7.22;;;4.95;;
30934;SDS011;51033;42.648;23.292;2023-05-07T11:29:50;10.85;;;6.57;;
30934;SDS011;51033;42.648;23.292;2023-05-07T11:32:16;6.82;;;5.30;;
30934;SDS011;51033;42.648;23.292;2023-05-07T11:34:51;6.80;;;5.47;;
30934;SDS011;51033;42.648;23.292;2023-05-07T11:37:17;6.05;;;5.32;;
30934;SDS011;51033;42.648;23.292;2023-05-07T11:39:43;8.40;;;5.43;;
30934;SDS011;51033;42.648;23.292;2023-05-07T11:44:52;6.22;;;5.30;;
30934;SDS011;51033;42.648;23.292;2023-05-07T11:47:18;6.50;;;5.80;;
30934;SDS011;51033;42.648;23.292;2023-05-07T11:49:46;6.20;;;5.43;;
30934;SDS011;51033;42.648;23.292;2023-05-07T11:52:16;7.18;;;5.22;;
30934;SDS011;51033;42.648;23.292;2023-05-07T11:54:48;9.20;;;5.88;;
30934;SDS011;51033;42.648;23.292;2023-05-07T11:57:15;8.32;;;4.68;;
30934;SDS011;51033;42.648;23.292;2023-05-07T11:59:40;6.82;;;5.22;;
30934;SDS011;51033;42.648;23.292;2023-05-07T12:02:06;9.68;;;5.32;;
30934;SDS011;51033;42.648;23.292;2023-05-07T12:04:32;14.90;;;5.53;;
30934;SDS011;51033;42.648;23.292;2023-05-07T12:06:58;9.70;;;5.00;;
30934;SDS011;51033;42.648;23.292;2023-05-07T12:09:23;5.88;;;5.20;;
30934;SDS011;51033;42.648;23.292;2023-05-07T12:11:49;5.50;;;4.80;;
30934;SDS011;51033;42.648;23.292;2023-05-07T12:14:16;6.70;;;5.30;;
30934;SDS011;51033;42.648;23.292;2023-05-07T12:16:41;7.07;;;4.63;;
30934;SDS011;51033;42.648;23.292;2023-05-07T12:19:08;6.75;;;4.35;;
30934;SDS011;51033;42.648;23.292;2023-05-07T12:21:37;6.50;;;4.57;;
30934;SDS011;51033;42.648;23.292;2023-05-07T12:24:04;10.65;;;5.07;;
30934;SDS011;51033;42.648;23.292;2023-05-07T12:26:29;5.93;;;4.38;;
30934;SDS011;51033;42.648;23.292;2023-05-07T12:28:56;8.18;;;4.47;;
30934;SDS011;51033;42.648;23.292;2023-05-07T12:31:22;6.30;;;4.45;;
30934;SDS011;51033;42.648;23.292;2023-05-07T12:33:50;4.30;;;3.90;;
30934;SDS011;51033;42.648;23.292;2023-05-07T12:36:15;7.03;;;3.92;;
30934;SDS011;51033;42.648;23.292;2023-05-07T12:38:41;7.38;;;4.65;;
30934;SDS011;51033;42.648;23.292;2023-05-07T12:41:07;4.00;;;3.60;;
30934;SDS011;51033;42.648;23.292;2023-05-07T12:43:34;7.47;;;3.67;;
30934;SDS011;51033;42.648;23.292;2023-05-07T12:46:02;4.75;;;3.95;;
30934;SDS011;51033;42.648;23.292;2023-05-07T12:48:29;4.95;;;3.83;;
30934;SDS011;51033;42.648;23.292;2023-05-07T12:50:55;7.43;;;4.10;;
30934;SDS011;51033;42.648;23.292;2023-05-07T12:53:24;7.63;;;4.47;;
30934;SDS011;51033;42.648;23.292;2023-05-07T12:55:52;4.95;;;3.83;;
30934;SDS011;51033;42.648;23.292;2023-05-07T12:58:23;4.45;;;3.40;;
30934;SDS011;51033;42.648;23.292;2023-05-07T13:00:51;4.68;;;3.42;;
30934;SDS011;51033;42.648;23.292;2023-05-07T13:03:33;5.30;;;4.03;;
30934;SDS011;51033;42.648;23.292;2023-05-07T13:06:06;5.22;;;3.67;;
30934;SDS011;51033;42.648;23.292;2023-05-07T13:08:38;4.03;;;3.60;;
30934;SDS011;51033;42.648;23.292;2023-05-07T13:11:06;9.23;;;4.45;;
30934;SDS011;51033;42.648;23.292;2023-05-07T13:13:33;4.90;;;3.42;;
30934;SDS011;51033;42.648;23.292;2023-05-07T13:16:00;5.55;;;3.63;;
30934;SDS011;51033;42.648;23.292;2023-05-07T13:18:26;3.75;;;3.45;;
30934;SDS011;51033;42.648;23.292;2023-05-07T13:20:54;4.55;;;3.90;;
30934;SDS011;51033;42.648;23.292;2023-05-07T13:23:19;4.57;;;3.92;;
30934;SDS011;51033;42.648;23.292;2023-05-07T13:25:44;5.75;;;3.85;;
30934;SDS011;51033;42.648;23.292;2023-05-07T13:28:10;3.67;;;3.10;;
30934;SDS011;51033;42.648;23.292;2023-05-07T13:30:35;6.05;;;3.50;;
30934;SDS011;51033;42.648;23.292;2023-05-07T13:33:01;8.13;;;4.25;;
30934;SDS011;51033;42.648;23.292;2023-05-07T13:35:27;4.22;;;3.15;;
30934;SDS011;51033;42.648;23.292;2023-05-07T13:37:52;3.38;;;3.08;;
30934;SDS011;51033;42.648;23.292;2023-05-07T13:40:19;4.95;;;3.15;;
30934;SDS011;51033;42.648;23.292;2023-05-07T13:42:46;4.43;;;3.58;;
30934;SDS011;51033;42.648;23.292;2023-05-07T13:45:11;4.53;;;2.97;;
30934;SDS011;51033;42.648;23.292;2023-05-07T13:47:39;3.97;;;3.40;;
30934;SDS011;51033;42.648;23.292;2023-05-07T13:50:05;4.43;;;3.30;;
30934;SDS011;51033;42.648;23.292;2023-05-07T13:52:32;3.80;;;3.03;;
30934;SDS011;51033;42.648;23.292;2023-05-07T13:54:59;13.40;;;4.85;;
30934;SDS011;51033;42.648;23.292;2023-05-07T13:57:25;4.85;;;3.15;;
30934;SDS011;51033;42.648;23.292;2023-05-07T13:59:50;4.10;;;2.97;;
30934;SDS011;51033;42.648;23.292;2023-05-07T14:02:16;4.45;;;3.55;;
30934;SDS011;51033;42.648;23.292;2023-05-07T14:04:41;3.35;;;2.97;;
30934;SDS011;51033;42.648;23.292;2023-05-07T14:07:06;3.80;;;2.80;;
30934;SDS011;51033;42.648;23.292;2023-05-07T14:09:32;3.47;;;2.92;;
30934;SDS011;51033;42.648;23.292;2023-05-07T14:11:58;5.00;;;3.08;;
30934;SDS011;51033;42.648;23.292;2023-05-07T14:14:23;3.67;;;2.83;;
30934;SDS011;51033;42.648;23.292;2023-05-07T14:16:49;5.00;;;2.90;;
30934;SDS011;51033;42.648;23.292;2023-05-07T14:19:14;5.35;;;3.20;;
30934;SDS011;51033;42.648;23.292;2023-05-07T14:21:40;3.92;;;2.67;;
30934;SDS011;51033;42.648;23.292;2023-05-07T14:24:06;3.35;;;2.95;;
30934;SDS011;51033;42.648;23.292;2023-05-07T14:26:33;3.40;;;3.10;;
30934;SDS011;51033;42.648;23.292;2023-05-07T14:28:59;5.13;;;3.22;;
30934;SDS011;51033;42.648;23.292;2023-05-07T14:31:25;5.03;;;2.58;;
30934;SDS011;51033;42.648;23.292;2023-05-07T14:33:51;3.97;;;2.90;;
30934;SDS011;51033;42.648;23.292;2023-05-07T14:36:17;5.20;;;2.75;;
30934;SDS011;51033;42.648;23.292;2023-05-07T14:38:44;3.20;;;2.90;;
30934;SDS011;51033;42.648;23.292;2023-05-07T14:41:10;2.50;;;2.30;;
30934;SDS011;51033;42.648;23.292;2023-05-07T14:43:36;3.28;;;2.50;;